sensor_id;sensor_type;location;lat;lon;timestamp;P1;durP1;ratioP1;P2;durP2;ratioP2
44046;SDS011;29713;-33.888;151.150;2023-04-03T00:01:16;3.17;;;1.08;;
44046;SDS011;29713;-33.888;151.150;2023-04-03T00:03:43;3.10;;;1.15;;
44046;SDS011;29713;-33.888;151.150;2023-04-03T00:06:12;3.55;;;1.00;;
44046;SDS011;29713;-33.888;151.150;2023-04-03T00:08:40;3.70;;;1.13;;
44046;SDS011;29713;-33.888;151.150;2023-04-03T00:11:08;3.42;;;0.90;;
44046;SDS011;29713;-33.888;151.150;2023-04-03T00:13:36;3.45;;;0.80;;
44046;SDS011;29713;-33.888;151.150;2023-04-03T00:16:04;2.13;;;1.00;;
44046;SDS011;29713;-33.888;151.150;2023-04-03T00:18:32;3.13;;;1.20;;
44046;SDS011;29713;-33.888;151.150;2023-04-03T00:21:00;3.17;;;0.75;;
44046;SDS011;29713;-33.888;151.150;2023-04-03T00:23:27;3.05;;;1.00;;
44046;SDS011;29713;-33.888;151.150;2023-04-03T00:25:55;3.78;;;0.93;;
44046;SDS011;29713;-33.888;151.150;2023-04-03T00:28:22;2.97;;;1.10;;
44046;SDS011;29713;-33.888;151.150;2023-04-03T00:30:50;4.00;;;1.77;;
44046;SDS011;29713;-33.888;151.150;2023-04-03T00:33:18;9.48;;;2.40;;
44046;SDS011;29713;-33.888;151.150;2023-04-03T00:35:50;7.95;;;2.05;;
44046;SDS011;29713;-33.888;151.150;2023-04-03T00:38:17;7.28;;;2.17;;
44046;SDS011;29713;-33.888;151.150;2023-04-03T00:40:45;5.75;;;1.48;;
44046;SDS011;29713;-33.888;151.150;2023-04-03T00:43:15;5.90;;;1.90;;
44046;SDS011;29713;-33.888;151.150;2023-04-03T00:45:50;5.65;;;1.60;;
44046;SDS011;29713;-33.888;151.150;2023-04-03T00:48:24;5.97;;;1.75;;
44046;SDS011;29713;-33.888;151.150;2023-04-03T00:51:03;8.35;;;2.13;;
44046;SDS011;29713;-33.888;151.150;2023-04-03T00:53:36;4.55;;;1.20;;
44046;SDS011;29713;-33.888;151.150;2023-04-03T00:56:33;4.07;;;1.48;;
44046;SDS011;29713;-33.888;151.150;2023-04-03T00:59:12;4.47;;;1.42;;
44046;SDS011;29713;-33.888;151.150;2023-04-03T01:01:47;3.50;;;1.10;;
44046;SDS011;29713;-33.888;151.150;2023-04-03T01:04:30;4.07;;;1.20;;
44046;SDS011;29713;-33.888;151.150;2023-04-03T01:07:04;4.72;;;1.15;;
44046;SDS011;29713;-33.888;151.150;2023-04-03T01:09:35;5.70;;;0.90;;
44046;SDS011;29713;-33.888;151.150;2023-04-03T01:12:16;3.03;;;1.00;;
44046;SDS011;29713;-33.888;151.150;2023-04-03T01:14:49;3.67;;;1.10;;
44046;SDS011;29713;-33.888;151.150;2023-04-03T01:17:28;5.38;;;1.10;;
44046;SDS011;29713;-33.888;151.150;2023-04-03T01:25:48;2.38;;;0.98;;
44046;SDS011;29713;-33.888;151.150;2023-04-03T01:28:19;3.83;;;1.10;;
44046;SDS011;29713;-33.888;151.150;2023-04-03T01:33:55;3.90;;;1.00;;
44046;SDS011;29713;-33.888;151.150;2023-04-03T01:36:29;5.25;;;1.45;;
44046;SDS011;29713;-33.888;151.150;2023-04-03T01:38:58;4.30;;;1.05;;
44046;SDS011;29713;-33.888;151.150;2023-04-03T01:41:27;4.85;;;1.45;;
44046;SDS011;29713;-33.888;151.150;2023-04-03T01:43:55;4.63;;;1.35;;
44046;SDS011;29713;-33.888;151.150;2023-04-03T01:46:22;5.22;;;1.17;;
44046;SDS011;29713;-33.888;151.150;2023-04-03T01:48:49;5.30;;;1.23;;
44046;SDS011;29713;-33.888;151.150;2023-04-03T01:51:17;4.13;;;1.30;;
44046;SDS011;29713;-33.888;151.150;2023-04-03T01:53:44;6.30;;;1.30;;
44046;SDS011;29713;-33.888;151.150;2023-04-03T01:56:11;5.38;;;0.95;;
44046;SDS011;29713;-33.888;151.150;2023-04-03T01:58:39;3.45;;;1.00;;
44046;SDS011;29713;-33.888;151.150;2023-04-03T02:01:06;6.93;;;1.13;;
44046;SDS011;29713;-33.888;151.150;2023-04-03T02:03:33;4.97;;;1.45;;
44046;SDS011;29713;-33.888;151.150;2023-04-03T02:06:01;5.63;;;1.00;;
44046;SDS011;29713;-33.888;151.150;2023-04-03T02:08:28;4.00;;;1.10;;
44046;SDS011;29713;-33.888;151.150;2023-04-03T02:10:55;7.43;;;1.67;;
44046;SDS011;29713;-33.888;151.150;2023-04-03T02:13:23;3.72;;;1.27;;
44046;SDS011;29713;-33.888;151.150;2023-04-03T02:15:50;6.82;;;1.13;;
44046;SDS011;29713;-33.888;151.150;2023-04-03T02:18:17;5.47;;;1.25;;
44046;SDS011;29713;-33.888;151.150;2023-04-03T02:20:46;8.68;;;1.30;;
44046;SDS011;29713;-33.888;151.150;2023-04-03T02:23:13;5.68;;;1.13;;
44046;SDS011;29713;-33.888;151.150;2023-04-03T02:25:41;5.72;;;1.17;;
44046;SDS011;29713;-33.888;151.150;2023-04-03T02:28:08;3.47;;;1.00;;
44046;SDS011;29713;-33.888;151.150;2023-04-03T02:30:35;3.55;;;1.13;;
44046;SDS011;29713;-33.888;151.150;2023-04-03T02:33:03;4.93;;;1.30;;
44046;SDS011;29713;-33.888;151.150;2023-04-03T02:35:30;4.35;;;1.42;;
44046;SDS011;29713;-33.888;151.150;2023-04-03T02:37:57;4.25;;;1.27;;
44046;SDS011;29713;-33.888;151.150;2023-04-03T02:40:25;4.03;;;1.23;;
44046;SDS011;29713;-33.888;151.150;2023-04-03T02:42:52;3.65;;;0.98;;
44046;SDS011;29713;-33.888;151.150;2023-04-03T02:45:20;3.17;;;0.73;;
44046;SDS011;29713;-33.888;151.150;2023-04-03T02:47:47;4.32;;;0.88;;
44046;SDS011;29713;-33.888;151.150;2023-04-03T02:50:14;4.40;;;1.20;;
44046;SDS011;29713;-33.888;151.150;2023-04-03T02:52:42;3.42;;;0.90;;
44046;SDS011;29713;-33.888;151.150;2023-04-03T02:55:12;3.42;;;0.90;;
44046;SDS011;29713;-33.888;151.150;2023-04-03T02:57:41;3.58;;;1.02;;
44046;SDS011;29713;-33.888;151.150;2023-04-03T03:00:09;3.60;;;1.20;;
44046;SDS011;29713;-33.888;151.150;2023-04-03T03:02:36;3.38;;;1.30;;
44046;SDS011;29713;-33.888;151.150;2023-04-03T03:05:04;4.22;;;0.80;;
44046;SDS011;29713;-33.888;151.150;2023-04-03T03:07:32;3.97;;;1.20;;
44046;SDS011;29713;-33.888;151.150;2023-04-03T03:09:59;5.18;;;1.02;;
44046;SDS011;29713;-33.888;151.150;2023-04-03T03:12:30;4.47;;;1.00;;
44046;SDS011;29713;-33.888;151.150;2023-04-03T03:14:57;3.60;;;1.15;;
44046;SDS011;29713;-33.888;151.150;2023-04-03T03:17:25;2.67;;;1.00;;
44046;SDS011;29713;-33.888;151.150;2023-04-03T03:19:52;3.65;;;0.93;;
44046;SDS011;29713;-33.888;151.150;2023-04-03T03:22:19;4.32;;;1.05;;
44046;SDS011;29713;-33.888;151.150;2023-04-03T03:24:49;4.75;;;1.20;;
44046;SDS011;29713;-33.888;151.150;2023-04-03T03:27:17;4.22;;;1.10;;
44046;SDS011;29713;-33.888;151.150;2023-04-03T03:29:44;4.47;;;1.35;;
44046;SDS011;29713;-33.888;151.150;2023-04-03T03:32:11;5.20;;;1.05;;
44046;SDS011;29713;-33.888;151.150;2023-04-03T03:34:39;3.95;;;1.08;;
44046;SDS011;29713;-33.888;151.150;2023-04-03T03:37:06;3.20;;;1.27;;
44046;SDS011;29713;-33.888;151.150;2023-04-03T03:39:33;4.30;;;1.02;;
44046;SDS011;29713;-33.888;151.150;2023-04-03T03:42:01;5.88;;;0.80;;
44046;SDS011;29713;-33.888;151.150;2023-04-03T03:44:29;3.65;;;1.20;;
44046;SDS011;29713;-33.888;151.150;2023-04-03T03:46:56;6.00;;;1.55;;
44046;SDS011;29713;-33.888;151.150;2023-04-03T03:49:23;4.38;;;0.90;;
44046;SDS011;29713;-33.888;151.150;2023-04-03T03:51:51;4.72;;;1.50;;
44046;SDS011;29713;-33.888;151.150;2023-04-03T03:54:18;6.15;;;1.38;;
44046;SDS011;29713;-33.888;151.150;2023-04-03T03:56:46;5.20;;;1.10;;
44046;SDS011;29713;-33.888;151.150;2023-04-03T03:59:13;5.43;;;1.30;;
44046;SDS011;29713;-33.888;151.150;2023-04-03T04:01:40;5.03;;;1.27;;
44046;SDS011;29713;-33.888;151.150;2023-04-03T04:04:08;7.68;;;1.10;;
44046;SDS011;29713;-33.888;151.150;2023-04-03T04:06:35;2.13;;;0.85;;
44046;SDS011;29713;-33.888;151.150;2023-04-03T04:09:03;4.53;;;1.05;;
44046;SDS011;29713;-33.888;151.150;2023-04-03T04:11:30;5.68;;;1.20;;
44046;SDS011;29713;-33.888;151.150;2023-04-03T04:13:58;4.28;;;1.02;;
44046;SDS011;29713;-33.888;151.150;2023-04-03T04:16:26;4.93;;;0.95;;
44046;SDS011;29713;-33.888;151.150;2023-04-03T04:18:59;5.75;;;1.00;;
44046;SDS011;29713;-33.888;151.150;2023-04-03T04:21:27;4.75;;;1.10;;
44046;SDS011;29713;-33.888;151.150;2023-04-03T04:23:54;5.07;;;1.23;;
44046;SDS011;29713;-33.888;151.150;2023-04-03T04:26:21;5.43;;;1.10;;
44046;SDS011;29713;-33.888;151.150;2023-04-03T04:28:49;5.38;;;1.13;;
44046;SDS011;29713;-33.888;151.150;2023-04-03T04:31:17;6.35;;;1.20;;
44046;SDS011;29713;-33.888;151.150;2023-04-03T04:33:44;4.38;;;0.90;;
44046;SDS011;29713;-33.888;151.150;2023-04-03T04:36:11;5.63;;;1.08;;
44046;SDS011;29713;-33.888;151.150;2023-04-03T04:38:40;8.68;;;1.33;;
44046;SDS011;29713;-33.888;151.150;2023-04-03T04:41:08;5.03;;;1.27;;
44046;SDS011;29713;-33.888;151.150;2023-04-03T04:43:35;8.98;;;1.50;;
44046;SDS011;29713;-33.888;151.150;2023-04-03T04:46:06;5.25;;;1.23;;
44046;SDS011;29713;-33.888;151.150;2023-04-03T04:48:37;6.55;;;1.20;;
44046;SDS011;29713;-33.888;151.150;2023-04-03T04:51:06;8.70;;;1.25;;
44046;SDS011;29713;-33.888;151.150;2023-04-03T04:53:33;3.65;;;0.98;;
44046;SDS011;29713;-33.888;151.150;2023-04-03T04:56:00;8.68;;;1.35;;
44046;SDS011;29713;-33.888;151.150;2023-04-03T04:58:28;6.00;;;1.55;;
44046;SDS011;29713;-33.888;151.150;2023-04-03T05:00:59;6.97;;;1.30;;
44046;SDS011;29713;-33.888;151.150;2023-04-03T05:03:33;4.07;;;1.30;;
44046;SDS011;29713;-33.888;151.150;2023-04-03T05:06:01;4.78;;;1.27;;
44046;SDS011;29713;-33.888;151.150;2023-04-03T05:08:28;6.25;;;1.17;;
44046;SDS011;29713;-33.888;151.150;2023-04-03T05:10:56;5.68;;;1.10;;
44046;SDS011;29713;-33.888;151.150;2023-04-03T05:13:24;2.60;;;0.82;;
44046;SDS011;29713;-33.888;151.150;2023-04-03T05:15:51;5.75;;;1.10;;
44046;SDS011;29713;-33.888;151.150;2023-04-03T05:18:18;2.85;;;0.90;;
44046;SDS011;29713;-33.888;151.150;2023-04-03T05:20:47;5.78;;;1.20;;
44046;SDS011;29713;-33.888;151.150;2023-04-03T05:23:16;5.25;;;1.20;;
44046;SDS011;29713;-33.888;151.150;2023-04-03T05:25:44;3.38;;;0.95;;
44046;SDS011;29713;-33.888;151.150;2023-04-03T05:28:12;4.70;;;0.98;;
44046;SDS011;29713;-33.888;151.150;2023-04-03T05:30:40;3.63;;;1.10;;
44046;SDS011;29713;-33.888;151.150;2023-04-03T05:33:10;4.50;;;0.98;;
44046;SDS011;29713;-33.888;151.150;2023-04-03T05:35:37;7.80;;;1.20;;
44046;SDS011;29713;-33.888;151.150;2023-04-03T05:38:07;7.00;;;0.93;;
44046;SDS011;29713;-33.888;151.150;2023-04-03T05:40:34;3.58;;;1.10;;
44046;SDS011;29713;-33.888;151.150;2023-04-03T05:43:01;6.35;;;1.10;;
44046;SDS011;29713;-33.888;151.150;2023-04-03T05:45:29;5.15;;;0.82;;
44046;SDS011;29713;-33.888;151.150;2023-04-03T05:47:56;4.75;;;0.90;;
44046;SDS011;29713;-33.888;151.150;2023-04-03T05:50:24;4.45;;;0.90;;
44046;SDS011;29713;-33.888;151.150;2023-04-03T05:52:51;5.45;;;1.02;;
44046;SDS011;29713;-33.888;151.150;2023-04-03T05:55:21;5.35;;;1.27;;
44046;SDS011;29713;-33.888;151.150;2023-04-03T05:57:48;3.97;;;1.27;;
44046;SDS011;29713;-33.888;151.150;2023-04-03T06:00:16;5.22;;;1.10;;
44046;SDS011;29713;-33.888;151.150;2023-04-03T06:02:44;6.63;;;1.50;;
44046;SDS011;29713;-33.888;151.150;2023-04-03T06:05:11;7.85;;;1.50;;
44046;SDS011;29713;-33.888;151.150;2023-04-03T06:07:39;5.82;;;1.20;;
44046;SDS011;29713;-33.888;151.150;2023-04-03T06:10:07;4.28;;;1.20;;
44046;SDS011;29713;-33.888;151.150;2023-04-03T06:12:37;7.75;;;1.20;;
44046;SDS011;29713;-33.888;151.150;2023-04-03T06:15:04;3.97;;;0.70;;
44046;SDS011;29713;-33.888;151.150;2023-04-03T06:17:33;4.30;;;1.55;;
44046;SDS011;29713;-33.888;151.150;2023-04-03T06:20:01;4.75;;;0.98;;
44046;SDS011;29713;-33.888;151.150;2023-04-03T06:22:29;7.55;;;1.23;;
44046;SDS011;29713;-33.888;151.150;2023-04-03T06:24:57;5.35;;;0.98;;
44046;SDS011;29713;-33.888;151.150;2023-04-03T06:27:24;5.80;;;0.95;;
44046;SDS011;29713;-33.888;151.150;2023-04-03T06:29:51;3.35;;;1.15;;
44046;SDS011;29713;-33.888;151.150;2023-04-03T06:32:19;3.50;;;1.35;;
44046;SDS011;29713;-33.888;151.150;2023-04-03T06:34:46;4.25;;;1.10;;
44046;SDS011;29713;-33.888;151.150;2023-04-03T06:37:17;8.70;;;1.50;;
44046;SDS011;29713;-33.888;151.150;2023-04-03T06:39:46;6.93;;;1.38;;
44046;SDS011;29713;-33.888;151.150;2023-04-03T06:42:13;5.30;;;1.40;;
44046;SDS011;29713;-33.888;151.150;2023-04-03T06:44:41;6.85;;;1.30;;
44046;SDS011;29713;-33.888;151.150;2023-04-03T06:47:12;6.20;;;1.48;;
44046;SDS011;29713;-33.888;151.150;2023-04-03T06:49:40;3.22;;;0.90;;
44046;SDS011;29713;-33.888;151.150;2023-04-03T06:52:08;8.80;;;1.25;;
44046;SDS011;29713;-33.888;151.150;2023-04-03T06:54:39;3.85;;;1.20;;
44046;SDS011;29713;-33.888;151.150;2023-04-03T06:57:07;7.22;;;1.33;;
44046;SDS011;29713;-33.888;151.150;2023-04-03T06:59:34;2.38;;;0.90;;
44046;SDS011;29713;-33.888;151.150;2023-04-03T07:02:02;4.70;;;0.98;;
44046;SDS011;29713;-33.888;151.150;2023-04-03T07:04:29;4.70;;;1.05;;
44046;SDS011;29713;-33.888;151.150;2023-04-03T07:06:57;6.03;;;1.25;;
44046;SDS011;29713;-33.888;151.150;2023-04-03T07:09:24;7.95;;;1.83;;
44046;SDS011;29713;-33.888;151.150;2023-04-03T07:11:52;4.43;;;1.50;;
44046;SDS011;29713;-33.888;151.150;2023-04-03T07:14:19;4.13;;;1.10;;
44046;SDS011;29713;-33.888;151.150;2023-04-03T07:16:47;5.10;;;0.93;;
44046;SDS011;29713;-33.888;151.150;2023-04-03T07:19:17;8.18;;;1.83;;
44046;SDS011;29713;-33.888;151.150;2023-04-03T07:21:44;6.57;;;1.40;;
44046;SDS011;29713;-33.888;151.150;2023-04-03T07:24:12;5.32;;;1.65;;
44046;SDS011;29713;-33.888;151.150;2023-04-03T07:26:40;7.55;;;2.42;;
44046;SDS011;29713;-33.888;151.150;2023-04-03T07:29:07;4.95;;;1.98;;
44046;SDS011;29713;-33.888;151.150;2023-04-03T07:31:34;5.40;;;2.03;;
44046;SDS011;29713;-33.888;151.150;2023-04-03T07:34:02;7.50;;;1.85;;
44046;SDS011;29713;-33.888;151.150;2023-04-03T07:36:29;9.38;;;3.03;;
44046;SDS011;29713;-33.888;151.150;2023-04-03T07:38:58;6.93;;;1.92;;
44046;SDS011;29713;-33.888;151.150;2023-04-03T07:41:26;6.28;;;2.08;;
44046;SDS011;29713;-33.888;151.150;2023-04-03T07:43:54;8.23;;;1.55;;
44046;SDS011;29713;-33.888;151.150;2023-04-03T07:46:22;2.15;;;1.10;;
44046;SDS011;29713;-33.888;151.150;2023-04-03T07:48:50;12.35;;;1.90;;
44046;SDS011;29713;-33.888;151.150;2023-04-03T07:51:17;8.75;;;2.17;;
44046;SDS011;29713;-33.888;151.150;2023-04-03T07:53:45;6.93;;;1.98;;
44046;SDS011;29713;-33.888;151.150;2023-04-03T07:56:12;6.00;;;1.90;;
44046;SDS011;29713;-33.888;151.150;2023-04-03T07:58:40;6.30;;;1.52;;
44046;SDS011;29713;-33.888;151.150;2023-04-03T08:01:07;4.53;;;1.20;;
44046;SDS011;29713;-33.888;151.150;2023-04-03T08:03:35;3.53;;;1.40;;
44046;SDS011;29713;-33.888;151.150;2023-04-03T08:06:03;7.68;;;1.50;;
44046;SDS011;29713;-33.888;151.150;2023-04-03T08:08:33;5.85;;;1.45;;
44046;SDS011;29713;-33.888;151.150;2023-04-03T08:11:01;5.13;;;1.38;;
44046;SDS011;29713;-33.888;151.150;2023-04-03T08:13:31;8.93;;;1.80;;
44046;SDS011;29713;-33.888;151.150;2023-04-03T08:16:06;10.23;;;1.70;;
44046;SDS011;29713;-33.888;151.150;2023-04-03T08:18:38;8.57;;;1.38;;
44046;SDS011;29713;-33.888;151.150;2023-04-03T08:21:06;8.18;;;1.50;;
44046;SDS011;29713;-33.888;151.150;2023-04-03T08:23:38;9.10;;;2.15;;
44046;SDS011;29713;-33.888;151.150;2023-04-03T08:26:13;5.97;;;1.98;;
44046;SDS011;29713;-33.888;151.150;2023-04-03T08:28:42;9.15;;;1.35;;
44046;SDS011;29713;-33.888;151.150;2023-04-03T08:31:11;6.18;;;1.60;;
44046;SDS011;29713;-33.888;151.150;2023-04-03T08:33:40;8.80;;;1.90;;
44046;SDS011;29713;-33.888;151.150;2023-04-03T08:36:15;11.13;;;1.40;;
44046;SDS011;29713;-33.888;151.150;2023-04-03T08:38:45;5.10;;;1.30;;
44046;SDS011;29713;-33.888;151.150;2023-04-03T08:46:36;5.20;;;1.30;;
44046;SDS011;29713;-33.888;151.150;2023-04-03T08:49:16;8.73;;;1.77;;
44046;SDS011;29713;-33.888;151.150;2023-04-03T08:52:00;10.30;;;1.80;;
44046;SDS011;29713;-33.888;151.150;2023-04-03T09:05:17;6.72;;;1.60;;
44046;SDS011;29713;-33.888;151.150;2023-04-03T09:07:57;6.40;;;1.50;;
44046;SDS011;29713;-33.888;151.150;2023-04-03T09:10:32;8.82;;;1.63;;
44046;SDS011;29713;-33.888;151.150;2023-04-03T09:16:00;4.97;;;1.58;;
44046;SDS011;29713;-33.888;151.150;2023-04-03T09:18:32;10.70;;;1.52;;
44046;SDS011;29713;-33.888;151.150;2023-04-03T09:21:17;5.72;;;1.30;;
44046;SDS011;29713;-33.888;151.150;2023-04-03T09:23:51;4.18;;;1.20;;
44046;SDS011;29713;-33.888;151.150;2023-04-03T09:26:24;4.10;;;1.23;;
44046;SDS011;29713;-33.888;151.150;2023-04-03T09:28:59;6.38;;;1.30;;
44046;SDS011;29713;-33.888;151.150;2023-04-03T09:31:38;6.47;;;1.40;;
44046;SDS011;29713;-33.888;151.150;2023-04-03T09:36:48;9.70;;;1.50;;
44046;SDS011;29713;-33.888;151.150;2023-04-03T09:39:24;3.10;;;1.27;;
44046;SDS011;29713;-33.888;151.150;2023-04-03T09:42:03;8.38;;;1.65;;
44046;SDS011;29713;-33.888;151.150;2023-04-03T09:44:38;6.57;;;1.70;;
44046;SDS011;29713;-33.888;151.150;2023-04-03T09:47:38;6.45;;;1.45;;
44046;SDS011;29713;-33.888;151.150;2023-04-03T09:52:48;10.00;;;1.60;;
44046;SDS011;29713;-33.888;151.150;2023-04-03T09:55:21;4.93;;;1.30;;
44046;SDS011;29713;-33.888;151.150;2023-04-03T09:57:58;7.20;;;1.25;;
44046;SDS011;29713;-33.888;151.150;2023-04-03T10:02:55;7.57;;;1.60;;
44046;SDS011;29713;-33.888;151.150;2023-04-03T10:05:36;5.97;;;1.25;;
44046;SDS011;29713;-33.888;151.150;2023-04-03T10:11:04;6.10;;;1.30;;
44046;SDS011;29713;-33.888;151.150;2023-04-03T10:13:33;8.63;;;1.55;;
44046;SDS011;29713;-33.888;151.150;2023-04-03T10:16:08;6.40;;;0.98;;
44046;SDS011;29713;-33.888;151.150;2023-04-03T10:18:53;10.68;;;1.52;;
44046;SDS011;29713;-33.888;151.150;2023-04-03T10:21:33;7.43;;;1.30;;
44046;SDS011;29713;-33.888;151.150;2023-04-03T10:24:48;7.35;;;1.30;;
44046;SDS011;29713;-33.888;151.150;2023-04-03T10:27:13;5.45;;;1.23;;
44046;SDS011;29713;-33.888;151.150;2023-04-03T10:35:12;6.97;;;1.20;;
44046;SDS011;29713;-33.888;151.150;2023-04-03T10:38:24;9.77;;;1.80;;
44046;SDS011;29713;-33.888;151.150;2023-04-03T10:46:56;6.70;;;1.60;;
44046;SDS011;29713;-33.888;151.150;2023-04-03T10:49:45;8.02;;;1.48;;
44046;SDS011;29713;-33.888;151.150;2023-04-03T10:52:46;6.13;;;1.25;;
44046;SDS011;29713;-33.888;151.150;2023-04-03T10:57:51;6.35;;;1.60;;
44046;SDS011;29713;-33.888;151.150;2023-04-03T11:00:25;8.30;;;1.48;;
44046;SDS011;29713;-33.888;151.150;2023-04-03T11:03:16;7.28;;;1.08;;
44046;SDS011;29713;-33.888;151.150;2023-04-03T11:06:11;7.05;;;1.35;;
44046;SDS011;29713;-33.888;151.150;2023-04-03T11:08:45;8.27;;;1.15;;
44046;SDS011;29713;-33.888;151.150;2023-04-03T11:11:31;8.52;;;1.90;;
44046;SDS011;29713;-33.888;151.150;2023-04-03T11:16:48;5.90;;;1.27;;
44046;SDS011;29713;-33.888;151.150;2023-04-03T11:19:49;6.50;;;1.35;;
44046;SDS011;29713;-33.888;151.150;2023-04-03T11:22:43;6.72;;;1.40;;
44046;SDS011;29713;-33.888;151.150;2023-04-03T11:25:24;5.05;;;1.35;;
44046;SDS011;29713;-33.888;151.150;2023-04-03T11:27:56;5.63;;;1.60;;
44046;SDS011;29713;-33.888;151.150;2023-04-03T11:30:27;7.28;;;1.40;;
44046;SDS011;29713;-33.888;151.150;2023-04-03T11:35:48;12.68;;;1.27;;
44046;SDS011;29713;-33.888;151.150;2023-04-03T11:38:30;5.38;;;1.15;;
44046;SDS011;29713;-33.888;151.150;2023-04-03T11:41:05;4.43;;;1.17;;
44046;SDS011;29713;-33.888;151.150;2023-04-03T11:43:39;4.32;;;1.33;;
44046;SDS011;29713;-33.888;151.150;2023-04-03T11:46:08;9.10;;;1.67;;
44046;SDS011;29713;-33.888;151.150;2023-04-03T11:53:43;7.50;;;2.20;;
44046;SDS011;29713;-33.888;151.150;2023-04-03T12:04:20;8.07;;;1.60;;
44046;SDS011;29713;-33.888;151.150;2023-04-03T12:06:51;6.53;;;1.90;;
44046;SDS011;29713;-33.888;151.150;2023-04-03T12:13:15;8.57;;;2.38;;
44046;SDS011;29713;-33.888;151.150;2023-04-03T12:29:26;4.57;;;1.70;;
44046;SDS011;29713;-33.888;151.150;2023-04-03T12:48:46;6.90;;;2.08;;
44046;SDS011;29713;-33.888;151.150;2023-04-03T12:54:00;10.40;;;1.80;;
44046;SDS011;29713;-33.888;151.150;2023-04-03T12:56:31;8.43;;;2.03;;
44046;SDS011;29713;-33.888;151.150;2023-04-03T12:59:16;8.63;;;1.70;;
44046;SDS011;29713;-33.888;151.150;2023-04-03T13:01:54;6.53;;;1.77;;
44046;SDS011;29713;-33.888;151.150;2023-04-03T13:04:24;9.25;;;1.90;;
44046;SDS011;29713;-33.888;151.150;2023-04-03T13:06:53;3.58;;;1.50;;
44046;SDS011;29713;-33.888;151.150;2023-04-03T13:09:22;9.60;;;1.60;;
44046;SDS011;29713;-33.888;151.150;2023-04-03T13:12:03;6.63;;;1.65;;
44046;SDS011;29713;-33.888;151.150;2023-04-03T13:14:38;6.00;;;1.50;;
44046;SDS011;29713;-33.888;151.150;2023-04-03T13:17:10;8.45;;;1.80;;
44046;SDS011;29713;-33.888;151.150;2023-04-03T13:19:41;7.72;;;2.10;;
44046;SDS011;29713;-33.888;151.150;2023-04-03T13:22:57;6.47;;;1.42;;
44046;SDS011;29713;-33.888;151.150;2023-04-03T13:25:09;9.27;;;1.70;;
44046;SDS011;29713;-33.888;151.150;2023-04-03T13:27:40;9.15;;;2.08;;
44046;SDS011;29713;-33.888;151.150;2023-04-03T13:30:54;9.32;;;1.52;;
44046;SDS011;29713;-33.888;151.150;2023-04-03T13:33:04;9.98;;;1.70;;
44046;SDS011;29713;-33.888;151.150;2023-04-03T13:35:54;4.97;;;1.55;;
44046;SDS011;29713;-33.888;151.150;2023-04-03T13:38:25;6.35;;;1.70;;
44046;SDS011;29713;-33.888;151.150;2023-04-03T13:40:58;7.05;;;2.10;;
44046;SDS011;29713;-33.888;151.150;2023-04-03T13:43:32;3.60;;;1.50;;
44046;SDS011;29713;-33.888;151.150;2023-04-03T13:48:39;6.47;;;1.65;;
44046;SDS011;29713;-33.888;151.150;2023-04-03T13:53:45;7.00;;;1.63;;
44046;SDS011;29713;-33.888;151.150;2023-04-03T13:56:25;7.18;;;2.08;;
44046;SDS011;29713;-33.888;151.150;2023-04-03T13:59:19;5.30;;;1.90;;
44046;SDS011;29713;-33.888;151.150;2023-04-03T14:04:17;6.85;;;2.25;;
44046;SDS011;29713;-33.888;151.150;2023-04-03T14:06:56;6.05;;;1.60;;
44046;SDS011;29713;-33.888;151.150;2023-04-03T14:09:24;6.40;;;1.95;;
44046;SDS011;29713;-33.888;151.150;2023-04-03T14:11:54;6.25;;;1.80;;
44046;SDS011;29713;-33.888;151.150;2023-04-03T14:14:34;9.20;;;2.25;;
44046;SDS011;29713;-33.888;151.150;2023-04-03T14:17:10;9.00;;;2.30;;
44046;SDS011;29713;-33.888;151.150;2023-04-03T14:19:42;8.27;;;1.70;;
44046;SDS011;29713;-33.888;151.150;2023-04-03T14:22:16;5.05;;;1.85;;
44046;SDS011;29713;-33.888;151.150;2023-04-03T14:24:44;8.55;;;2.17;;
44046;SDS011;29713;-33.888;151.150;2023-04-03T14:27:15;10.07;;;2.15;;
44046;SDS011;29713;-33.888;151.150;2023-04-03T14:29:47;4.50;;;1.65;;
44046;SDS011;29713;-33.888;151.150;2023-04-03T14:32:17;6.10;;;1.92;;
44046;SDS011;29713;-33.888;151.150;2023-04-03T14:34:46;7.88;;;1.73;;
44046;SDS011;29713;-33.888;151.150;2023-04-03T14:37:17;5.93;;;2.20;;
44046;SDS011;29713;-33.888;151.150;2023-04-03T14:39:48;15.77;;;2.17;;
44046;SDS011;29713;-33.888;151.150;2023-04-03T14:42:18;6.85;;;2.30;;
44046;SDS011;29713;-33.888;151.150;2023-04-03T14:44:47;10.43;;;2.97;;
44046;SDS011;29713;-33.888;151.150;2023-04-03T14:47:20;7.15;;;2.10;;
44046;SDS011;29713;-33.888;151.150;2023-04-03T14:49:50;8.63;;;2.33;;
44046;SDS011;29713;-33.888;151.150;2023-04-03T14:52:22;8.52;;;1.88;;
44046;SDS011;29713;-33.888;151.150;2023-04-03T14:54:57;9.02;;;2.70;;
44046;SDS011;29713;-33.888;151.150;2023-04-03T14:57:26;6.45;;;1.90;;
44046;SDS011;29713;-33.888;151.150;2023-04-03T14:59:55;5.75;;;2.15;;
44046;SDS011;29713;-33.888;151.150;2023-04-03T15:05:04;5.82;;;2.13;;
44046;SDS011;29713;-33.888;151.150;2023-04-03T15:07:34;6.68;;;2.50;;
44046;SDS011;29713;-33.888;151.150;2023-04-03T15:10:37;6.20;;;2.20;;
44046;SDS011;29713;-33.888;151.150;2023-04-03T15:12:57;9.88;;;2.33;;
44046;SDS011;29713;-33.888;151.150;2023-04-03T15:15:27;7.25;;;2.75;;
44046;SDS011;29713;-33.888;151.150;2023-04-03T15:17:56;8.02;;;2.42;;
44046;SDS011;29713;-33.888;151.150;2023-04-03T15:20:24;7.75;;;2.95;;
44046;SDS011;29713;-33.888;151.150;2023-04-03T15:22:53;8.55;;;2.78;;
44046;SDS011;29713;-33.888;151.150;2023-04-03T15:25:22;10.23;;;2.63;;
44046;SDS011;29713;-33.888;151.150;2023-04-03T15:27:50;5.13;;;2.03;;
44046;SDS011;29713;-33.888;151.150;2023-04-03T15:30:19;7.25;;;1.92;;
44046;SDS011;29713;-33.888;151.150;2023-04-03T15:32:47;7.70;;;2.60;;
44046;SDS011;29713;-33.888;151.150;2023-04-03T15:35:15;6.53;;;2.50;;
44046;SDS011;29713;-33.888;151.150;2023-04-03T15:37:43;9.40;;;2.58;;
44046;SDS011;29713;-33.888;151.150;2023-04-03T15:40:11;8.77;;;2.47;;
44046;SDS011;29713;-33.888;151.150;2023-04-03T15:42:38;7.82;;;2.40;;
44046;SDS011;29713;-33.888;151.150;2023-04-03T15:45:06;7.18;;;2.47;;
44046;SDS011;29713;-33.888;151.150;2023-04-03T15:47:34;7.03;;;2.28;;
44046;SDS011;29713;-33.888;151.150;2023-04-03T15:50:02;9.15;;;2.40;;
44046;SDS011;29713;-33.888;151.150;2023-04-03T15:52:32;8.80;;;2.72;;
44046;SDS011;29713;-33.888;151.150;2023-04-03T15:55:00;6.93;;;2.67;;
44046;SDS011;29713;-33.888;151.150;2023-04-03T15:57:27;9.13;;;3.30;;
44046;SDS011;29713;-33.888;151.150;2023-04-03T15:59:55;15.90;;;2.75;;
44046;SDS011;29713;-33.888;151.150;2023-04-03T16:02:23;10.35;;;2.88;;
44046;SDS011;29713;-33.888;151.150;2023-04-03T16:04:53;4.70;;;2.20;;
44046;SDS011;29713;-33.888;151.150;2023-04-03T16:07:21;8.75;;;2.65;;
44046;SDS011;29713;-33.888;151.150;2023-04-03T16:09:48;5.10;;;2.45;;
44046;SDS011;29713;-33.888;151.150;2023-04-03T16:12:16;7.88;;;2.28;;
44046;SDS011;29713;-33.888;151.150;2023-04-03T16:14:43;9.35;;;2.67;;
44046;SDS011;29713;-33.888;151.150;2023-04-03T16:17:10;7.28;;;2.60;;
44046;SDS011;29713;-33.888;151.150;2023-04-03T16:19:38;8.32;;;2.35;;
44046;SDS011;29713;-33.888;151.150;2023-04-03T16:22:05;6.95;;;2.65;;
44046;SDS011;29713;-33.888;151.150;2023-04-03T16:24:32;6.20;;;2.85;;
44046;SDS011;29713;-33.888;151.150;2023-04-03T16:27:01;7.00;;;2.75;;
44046;SDS011;29713;-33.888;151.150;2023-04-03T16:29:28;8.50;;;2.67;;